Saga Pearl II — 9HA2950 — position and weather

sailwx.info

Track history (hours):
 
Tides and Currents Weather Stations Pressure Air Temp Water Temp Dewpoint Dewpoint Depression Visibility Wind Speed Wind Dir Waves Ship Positions

Saga Pearl II

Last reported at 2017-Aug-22 22:26 UTC. Time now 2017-Aug-22 22:28 UTC.
Position N 40°04' W 010°09'.

Length 164 m; draft 6.5 m.

Type: Ship. MMSI: 256878000.

Date/timePositionNaut miles runAvg speedWind from/ knotsBaromVisibWave heightAir tempDewpointWater temp
2017-Aug-22 22:26N 40°04' W 010°09'715.6
2017-Aug-22 22:00N 40°11' W 010°09'915.5
2017-Aug-22 21:26N 40°20' W 010°09'613.4
2017-Aug-22 21:00N 40°26' W 010°08'815.7
2017-Aug-22 20:30N 40°33' W 010°08'816.0
2017-Aug-22 20:00N 40°41' W 010°07'816.1
2017-Aug-22 19:30N 40°49' W 010°07'816.0
2017-Aug-22 19:00N 40°57' W 010°08'816.0
2017-Aug-22 18:30N 41°05' W 010°08'816.0
2017-Aug-22 18:00N 41°13' W 010°08'816.0
2017-Aug-22 17:30N 41°21' W 010°08'915.9
2017-Aug-22 16:58N 41°30' W 010°08'715.8
2017-Aug-22 16:30N 41°37' W 010°08'815.6
2017-Aug-22 15:59N 41°45' W 010°07'815.8
2017-Aug-22 15:30N 41°53' W 010°07'1016.0
2017-Aug-22 14:51N 42°03' W 010°07'615.7
2017-Aug-22 14:28N 42°10' W 010°07'1115.4
2017-Aug-22 13:45N 42°21' W 010°07'815.4
2017-Aug-22 13:15N 42°28' W 010°07'415.4
2017-Aug-22 13:00N 42°32' W 010°07'815.6
2017-Aug-22 12:30N 42°40' W 010°07'916.0
2017-Aug-22 11:58N 42°49' W 010°08'1615.5
2017-Aug-22 10:55N 43°05' W 010°07'815.3
2017-Aug-22 10:23N 43°13' W 010°07'1015.3
2017-Aug-22 09:44N 43°22' W 010°03'315.3
2017-Aug-22 09:30N 43°25' W 010°01'815.2
2017-Aug-22 09:00N 43°32' W 009°56'815.6
2017-Aug-22 08:30N 43°39' W 009°51'1015.8
2017-Aug-22 07:52N 43°48' W 009°45'615.6
2017-Aug-22 07:30N 43°53' W 009°41'815.3
2017-Aug-22 07:00N 43°60' W 009°36'7915.1
2017-Aug-22 01:45N 45°10' W 008°44'3914.3
2017-Aug-21 23:00N 45°42' W 008°12'5413.5 110 / 211013.410.8 19.518.221.2
2017-Aug-21 19:00N 46°30' W 007°36'8621.6 090 / 211015.810.8 20.017.1
2017-Aug-21 15:00N 47°48' W 006°42'3911.6 1009.6 0.3
2017-Aug-21 11:38N 48°24' W 006°20'317.6
2017-Aug-21 11:28N 48°27' W 006°18'917.8
2017-Aug-21 10:59N 48°35' W 006°12'918.5
2017-Aug-21 10:30N 48°42' W 006°06'918.8
2017-Aug-21 10:01N 48°50' W 005°59'8491.8
2017-Aug-21 10:00N 48°42' W 006°00'1734.9 190 / 61022.710.8 17.616.6
2017-Aug-21 09:30N 48°58' W 005°50'1019.0
2017-Aug-21 09:00N 49°02' W 005°37'918.9
2017-Aug-21 08:30N 49°07' W 005°25'2017.9
2017-Aug-21 07:24N 49°16' W 004°58'717.1
2017-Aug-21 07:01N 49°19' W 004°49'916.5
2017-Aug-21 06:29N 49°23' W 004°37'816.0
2017-Aug-21 06:00N 49°27' W 004°27'815.6
2017-Aug-21 05:31N 49°30' W 004°16'815.4
2017-Aug-21 05:01N 49°34' W 004°05'815.4
2017-Aug-21 04:30N 49°38' W 003°55'815.7
2017-Aug-21 04:01N 49°42' W 003°45'816.1
2017-Aug-21 03:31N 49°46' W 003°34'816.7
2017-Aug-21 03:01N 49°50' W 003°23'917.2
2017-Aug-21 02:31N 49°55' W 003°12'918.2
2017-Aug-21 01:59N 49°59' W 002°59'3219.7
2017-Aug-21 00:21N 50°07' W 002°10'719.9
2017-Aug-21 00:00N 50°09' W 001°60'1019.6
2017-Aug-20 23:30N 50°12' W 001°45'918.7
2017-Aug-20 23:00N 50°15' W 001°31'918.1
2017-Aug-20 22:30N 50°18' W 001°18'3415.7
2017-Aug-20 20:22N 50°26' W 000°27'515.2
2017-Aug-20 20:01N 50°28' W 000°19'815.2
2017-Aug-20 19:31N 50°30' W 000°07'1015.2
2017-Aug-20 18:52N 50°33' E 000°08'615.4
2017-Aug-20 18:28N 50°34' E 000°17'1016.2
2017-Aug-20 17:50N 50°38' E 000°32'617.0
2017-Aug-20 17:29N 50°40' E 000°40'917.8
2017-Aug-20 16:59N 50°46' E 000°52'2218.0
2017-Aug-20 15:46N 51°01' E 001°17'8 0.8
2017-Aug-20 04:58N 51°07' E 001°25'511.6
2017-Aug-20 04:30N 51°08' E 001°33'612.8
2017-Aug-20 04:00N 51°12' E 001°41'713.3
2017-Aug-20 03:31N 51°17' E 001°47'612.8
2017-Aug-20 03:01N 51°23' E 001°51'612.4
2017-Aug-20 02:30N 51°28' E 001°56'612.6
2017-Aug-20 02:00N 51°32' E 002°04'612.8
2017-Aug-20 01:30N 51°36' E 002°12'712.8
2017-Aug-20 00:59N 51°41' E 002°20'6413.3
2017-Aug-19 20:12N 52°26' E 003°32'314.8
2017-Aug-19 20:00N 52°27' E 003°37'814.7
2017-Aug-19 19:27N 52°30' E 003°49'614.4
2017-Aug-19 19:00N 52°31' E 003°60'714.4
2017-Aug-19 18:30N 52°31' E 004°12'713.5
2017-Aug-19 18:00N 52°30' E 004°22'4 8.1
2017-Aug-19 17:31N 52°28' E 004°29'4 7.9
2017-Aug-19 17:00N 52°28' E 004°35'0 0.0
2017-Aug-19 16:30N 52°28' E 004°35'0 0.0
2017-Aug-19 16:00N 52°28' E 004°35'0 0.0
2017-Aug-19 15:30N 52°28' E 004°35'0 0.0
2017-Aug-19 15:00N 52°28' E 004°35'0 0.0
2017-Aug-19 14:00N 52°28' E 004°35'0 0.0
2017-Aug-19 13:30N 52°28' E 004°35'0 0.0
2017-Aug-19 13:00N 52°28' E 004°35'0 0.0
2017-Aug-19 12:30N 52°28' E 004°35'0 0.0
2017-Aug-19 12:00N 52°28' E 004°35'0 0.0
2017-Aug-19 11:30N 52°28' E 004°35'0 0.0
2017-Aug-19 11:00N 52°28' E 004°35'0 0.0
2017-Aug-19 10:28N 52°28' E 004°35'0 0.0
2017-Aug-19 10:00N 52°28' E 004°35'0 0.0
2017-Aug-19 09:30N 52°28' E 004°35'0 0.0
2017-Aug-19 09:00N 52°28' E 004°35'0 0.0
2017-Aug-19 08:30N 52°28' E 004°35'0 0.0
2017-Aug-19 08:00N 52°28' E 004°35'0 0.5
2017-Aug-19 07:30N 52°28' E 004°35'510.3
2017-Aug-19 07:00N 52°28' E 004°27'510.1
2017-Aug-19 06:30N 52°28' E 004°18'612.2
2017-Aug-19 06:00N 52°30' E 004°08'713.1
2017-Aug-19 05:30N 52°36' E 004°04'713.5
2017-Aug-19 05:00N 52°42' E 004°01'713.9
2017-Aug-19 04:30N 52°49' E 003°58'714.2
2017-Aug-19 04:00N 52°56' E 004°00'510.0
2017-Aug-19 03:30N 52°60' E 004°06'1310.8
2017-Aug-19 02:20N 53°08' E 004°21'1912.5
2017-Aug-19 00:48N 53°26' E 004°35'612.1
2017-Aug-19 00:16N 53°30' E 004°43'312.7
2017-Aug-19 00:00N 53°31' E 004°48'612.4
2017-Aug-18 23:30N 53°33' E 004°58'5014.1
2017-Aug-18 20:00N 53°48' E 006°18'5014.4 260 / 141008.510.8 17.112.0
2017-Aug-18 16:32N 54°01' E 007°39'013.8
2017-Aug-18 16:30N 54°01' E 007°40'713.9
2017-Aug-18 16:00N 54°01' E 007°52'714.1
2017-Aug-18 15:30N 54°01' E 008°04'613.0
2017-Aug-18 15:00N 54°00' E 008°15'917.3
2017-Aug-18 14:30N 53°59' E 008°29'1717.2
2017-Aug-18 13:30N 53°51' E 008°55'816.4
2017-Aug-18 13:00N 53°54' E 009°08'0 0.3
2017-Aug-18 12:30N 53°54' E 009°09'1 2.4
2017-Aug-18 12:01N 53°54' E 009°10'4 8.0
2017-Aug-18 11:30N 53°57' E 009°15'4 8.1
2017-Aug-18 11:00N 54°01' E 009°18'5 8.3
2017-Aug-18 10:26N 54°06' E 009°20'3 7.5
2017-Aug-18 09:59N 54°09' E 009°21'2 3.3
2017-Aug-18 09:29N 54°10' E 009°24'44 6.2
2017-Aug-18 02:26N 54°33' E 010°27'4 9.7
2017-Aug-18 02:00N 54°34' E 010°34'5 9.4
2017-Aug-18 01:30N 54°35' E 010°42'5 9.3
2017-Aug-18 01:00N 54°35' E 010°50'510.1
2017-Aug-18 00:30N 54°36' E 010°59'510.4
2017-Aug-18 00:00N 54°36' E 011°08'510.4
2017-Aug-17 23:30N 54°35' E 011°16'510.4
2017-Aug-17 23:00N 54°32' E 011°24'5 9.0
2017-Aug-17 22:30N 54°28' E 011°27'510.1
2017-Aug-17 22:00N 54°23' E 011°27'610.1
2017-Aug-17 21:27N 54°18' E 011°26'8 8.7
2017-Aug-17 20:34N 54°10' E 011°26'1 9.7
2017-Aug-17 20:30N 54°09' E 011°26'5 9.2
2017-Aug-17 20:00N 54°05' E 011°27'611.0
2017-Aug-17 19:30N 54°01' E 011°20'611.6
2017-Aug-17 19:00N 53°56' E 011°25'2 4.5
2017-Aug-17 18:29N 53°54' E 011°28'0 0.0
2017-Aug-17 17:59N 53°54' E 011°28'0 0.0
2017-Aug-17 17:29N 53°54' E 011°28'0 0.0
2017-Aug-17 16:58N 53°54' E 011°28'0 0.0
2017-Aug-17 16:28N 53°54' E 011°28'0 0.0
2017-Aug-17 16:00N 53°54' E 011°28'0 0.0
2017-Aug-17 15:28N 53°54' E 011°28'0 0.0
2017-Aug-17 15:00N 53°54' E 011°28'0 0.0
2017-Aug-17 14:30N 53°54' E 011°28'0 0.0
2017-Aug-17 14:00N 53°54' E 011°28'0 0.0
2017-Aug-17 13:30N 53°54' E 011°28'0 0.0
2017-Aug-17 13:00N 53°54' E 011°28'0 0.0
2017-Aug-17 12:29N 53°54' E 011°28'0 0.0
2017-Aug-17 11:59N 53°54' E 011°28'0 0.0
2017-Aug-17 11:29N 53°54' E 011°28'0 0.0
2017-Aug-17 10:59N 53°54' E 011°28'0 0.0
2017-Aug-17 10:29N 53°54' E 011°28'0 0.0
2017-Aug-17 09:58N 53°54' E 011°28'0 0.0
2017-Aug-17 09:28N 53°54' E 011°28'0 0.0
2017-Aug-17 08:58N 53°54' E 011°28'0 0.0
2017-Aug-17 08:28N 53°54' E 011°28'0 0.0
2017-Aug-17 08:00N 53°54' E 011°28'0 0.0
2017-Aug-17 07:30N 53°54' E 011°28'0 0.0
2017-Aug-17 07:00N 53°54' E 011°28'0 0.0
2017-Aug-17 06:30N 53°54' E 011°28'0 0.0
2017-Aug-17 06:00N 53°54' E 011°28'1 1.9
2017-Aug-17 05:31N 53°55' E 011°26'4 7.3
2017-Aug-17 05:01N 53°58' E 011°23'4 7.3
2017-Aug-17 04:30N 54°01' E 011°21'5 9.9
2017-Aug-17 04:01N 54°05' E 011°27'612.4
2017-Aug-17 03:31N 54°11' E 011°28'815.6
2017-Aug-17 03:00N 54°18' E 011°35'816.6
2017-Aug-17 02:30N 54°24' E 011°46'815.8
2017-Aug-17 02:00N 54°26' E 011°59'714.1
2017-Aug-17 01:31N 54°28' E 012°10'713.8
2017-Aug-17 01:00N 54°34' E 012°13'510.2
2017-Aug-17 00:30N 54°38' E 012°19'510.1
2017-Aug-17 00:00N 54°41' E 012°26'610.2
2017-Aug-16 23:24N 54°45' E 012°35'4 9.9
2017-Aug-16 22:58N 54°47' E 012°41'19 9.9
2017-Aug-16 21:02N 54°53' E 013°13'0 9.9
2017-Aug-16 20:59N 54°53' E 013°14'510.0
2017-Aug-16 20:30N 54°54' E 013°22'610.1
2017-Aug-16 19:57N 54°55' E 013°32'4 9.9
2017-Aug-16 19:30N 54°55' E 013°39'5 9.9
2017-Aug-16 19:00N 54°55' E 013°48'5 9.7
2017-Aug-16 18:30N 54°57' E 013°56'5 9.6
2017-Aug-16 18:00N 54°57' E 014°04'5 9.6
2017-Aug-16 17:30N 54°59' E 014°12'5 9.7
2017-Aug-16 17:00N 55°00' E 014°20'4 8.4
2017-Aug-16 16:30N 55°02' E 014°27'5 9.3
2017-Aug-16 16:00N 55°04' E 014°34'4 8.2
2017-Aug-16 15:30N 55°06' E 014°41'0 0.8
2017-Aug-16 14:58N 55°06' E 014°41'0 0.0
2017-Aug-16 14:28N 55°06' E 014°41'0 0.0
2017-Aug-16 14:00N 55°06' E 014°41'0 0.0
2017-Aug-16 13:30N 55°06' E 014°41'0 0.0
2017-Aug-16 13:00N 55°06' E 014°41'0 0.0
2017-Aug-16 12:30N 55°06' E 014°41'0 0.0
2017-Aug-16 11:59N 55°06' E 014°41'0 0.0
2017-Aug-16 11:29N 55°06' E 014°41'0 0.0
2017-Aug-16 10:59N 55°06' E 014°41'0 0.0
2017-Aug-16 10:29N 55°06' E 014°41'0 0.0
2017-Aug-16 09:59N 55°06' E 014°41'0 0.0
2017-Aug-16 09:28N 55°06' E 014°41'0 0.0
2017-Aug-16 08:58N 55°06' E 014°41'0 0.0
2017-Aug-16 08:28N 55°06' E 014°41'0 0.0
2017-Aug-16 07:58N 55°06' E 014°41'0 0.0
2017-Aug-16 07:28N 55°06' E 014°41'0 0.0
2017-Aug-16 06:57N 55°06' E 014°41'0 0.0
2017-Aug-16 06:27N 55°06' E 014°41'0 0.0
2017-Aug-16 05:57N 55°06' E 014°41'0 0.0
2017-Aug-16 05:31N 55°06' E 014°41'2 4.3
2017-Aug-16 05:01N 55°05' E 014°38'612.2
2017-Aug-16 04:30N 55°12' E 014°38'815.8
2017-Aug-16 04:00N 55°19' E 014°43'816.1
2017-Aug-16 03:30N 55°24' E 014°54'816.7
2017-Aug-16 03:00N 55°29' E 015°06'816.1
2017-Aug-16 02:30N 55°34' E 015°17'815.5
2017-Aug-16 02:00N 55°39' E 015°27'816.0
2017-Aug-16 01:30N 55°43' E 015°40'816.0
2017-Aug-16 01:00N 55°47' E 015°51'816.4
2017-Aug-16 00:31N 55°52' E 016°03'816.5
2017-Aug-16 00:00N 55°57' E 016°15'12749.4
2017-Aug-16 00:00N 55°48' E 016°00'2042.1 200 / 261015.9 5.4 18.615.919.3
2017-Aug-15 23:30N 56°02' E 016°27'816.5
2017-Aug-15 23:00N 56°07' E 016°39'1614.9
2017-Aug-15 21:57N 56°16' E 017°01'916.4
2017-Aug-15 21:26N 56°21' E 017°14'1416.4
2017-Aug-15 20:33N 56°30' E 017°35'116.5
2017-Aug-15 20:30N 56°30' E 017°36'816.5
2017-Aug-15 20:01N 56°35' E 017°48'816.4
2017-Aug-15 19:30N 56°41' E 017°59'816.3
2017-Aug-15 19:00N 56°46' E 018°11'4293.4
2017-Aug-15 19:00N 56°42' E 018°06'1722.2 160 / 211021.410.8 17.514.0
2017-Aug-15 18:14N 56°54' E 018°28'416.5
2017-Aug-15 18:01N 56°57' E 018°33'12510.4
2017-Aug-15 06:00N 58°36' E 020°54'419.6 180 / 191025.910.8 17.512.119.7
2017-Aug-15 05:47N 58°40' E 020°56'3 9.4
2017-Aug-15 05:30N 58°42' E 020°59'5 9.4
2017-Aug-15 05:00N 58°46' E 021°04'5 9.4
2017-Aug-15 04:31N 58°50' E 021°09'5 9.4
2017-Aug-15 04:00N 58°53' E 021°15'5 9.5
2017-Aug-15 03:30N 58°57' E 021°20'5 9.5
2017-Aug-15 03:00N 59°01' E 021°25'5 9.5
2017-Aug-15 02:30N 59°05' E 021°31'5 9.6
2017-Aug-15 02:00N 59°09' E 021°37'510.3
2017-Aug-15 01:30N 59°12' E 021°44'5 9.1
2017-Aug-15 01:00N 59°15' E 021°51'510.3
2017-Aug-15 00:30N 59°18' E 021°59'4 8.8
2017-Aug-15 00:00N 59°21' E 022°06'5 9.6
2017-Aug-14 23:31N 59°24' E 022°14'5 9.8
2017-Aug-14 23:00N 59°26' E 022°21'5 9.7
2017-Aug-14 22:30N 59°29' E 022°29'5 9.5
2017-Aug-14 22:01N 59°32' E 022°37'510.1
2017-Aug-14 21:30N 59°33' E 022°47'5 9.2
2017-Aug-14 21:00N 59°32' E 022°56'4 8.9
2017-Aug-14 20:31N 59°32' E 023°05'510.7
2017-Aug-14 20:00N 59°32' E 023°15'4 8.2
2017-Aug-14 19:30N 59°32' E 023°23'5 9.6
2017-Aug-14 19:00N 59°31' E 023°33'5 9.4
2017-Aug-14 18:31N 59°31' E 023°42'5 9.3
2017-Aug-14 18:01N 59°31' E 023°51'2101.0
2017-Aug-14 18:00N 59°30' E 023°54'3 6.9 270 / 161023.510.8 17.5 9.3
2017-Aug-14 17:30N 59°31' E 024°00'5 9.1
2017-Aug-14 17:01N 59°30' E 024°09'5 9.0
2017-Aug-14 16:31N 59°30' E 024°18'5 9.1
2017-Aug-14 16:00N 59°30' E 024°27'5 9.1
2017-Aug-14 15:31N 59°31' E 024°36'510.1
2017-Aug-14 15:01N 59°30' E 024°46'3 4.9
2017-Aug-14 14:30N 59°27' E 024°46'0 0.0
2017-Aug-14 13:59N 59°27' E 024°46'0 0.0
2017-Aug-14 13:29N 59°27' E 024°46'0 0.0
2017-Aug-14 12:59N 59°27' E 024°46'0 0.0
2017-Aug-14 12:29N 59°27' E 024°46'0 0.0
2017-Aug-14 11:58N 59°27' E 024°46'0 0.0
2017-Aug-14 11:28N 59°27' E 024°46'0 0.0
2017-Aug-14 10:58N 59°27' E 024°46'0 0.0
2017-Aug-14 10:28N 59°27' E 024°46'0 0.0
2017-Aug-14 09:58N 59°27' E 024°46'0 0.0
2017-Aug-14 09:30N 59°27' E 024°46'0 0.0
2017-Aug-14 09:00N 59°27' E 024°46'0 0.0
2017-Aug-14 08:30N 59°27' E 024°46'0 0.0
2017-Aug-14 08:00N 59°27' E 024°46'0 0.0
2017-Aug-14 07:29N 59°27' E 024°46'0 0.0
2017-Aug-14 06:59N 59°27' E 024°46'0 0.0
2017-Aug-14 06:29N 59°27' E 024°46'0 0.0
2017-Aug-14 05:59N 59°27' E 024°46'0 0.0
2017-Aug-14 05:31N 59°27' E 024°46'3 5.2
2017-Aug-14 05:00N 59°30' E 024°45'713.8
2017-Aug-14 04:31N 59°36' E 024°40'713.5
2017-Aug-14 04:00N 59°42' E 024°47'714.3
2017-Aug-14 03:31N 59°47' E 024°57'714.7
2017-Aug-14 03:00N 59°51' E 025°09'713.0
2017-Aug-14 02:31N 59°52' E 025°22'815.4
2017-Aug-14 02:00N 59°53' E 025°37'815.0
2017-Aug-14 01:30N 59°55' E 025°51'715.0
2017-Aug-14 01:00N 59°57' E 026°06'816.2
2017-Aug-14 00:30N 59°60' E 026°21'816.8
2017-Aug-14 00:00N 60°01' E 026°37'816.8
2017-Aug-13 23:30N 60°00' E 026°54'815.8
2017-Aug-13 23:00N 60°01' E 027°10'816.5
2017-Aug-13 22:30N 60°05' E 027°24'816.8
2017-Aug-13 22:00N 60°10' E 027°38'815.3
2017-Aug-13 21:30N 60°11' E 027°53'816.8
2017-Aug-13 21:00N 60°09' E 028°09'816.3
2017-Aug-13 20:30N 60°05' E 028°24'816.2
2017-Aug-13 20:00N 60°03' E 028°39'916.7
2017-Aug-13 19:28N 60°03' E 028°58'1016.6
2017-Aug-13 18:53N 60°02' E 029°17'1212.9
2017-Aug-13 17:59N 59°60' E 029°40'510.3
2017-Aug-13 17:30N 59°58' E 029°48'611.8
2017-Aug-13 17:00N 59°55' E 029°59'510.2
2017-Aug-13 16:30N 59°54' E 030°09'3 5.4
2017-Aug-13 16:00N 59°54' E 030°14'2 4.6
2017-Aug-13 15:30N 59°56' E 030°17'0 0.8
2017-Aug-13 14:59N 59°56' E 030°16'0 0.0
2017-Aug-13 14:29N 59°56' E 030°16'0 0.0
2017-Aug-13 13:59N 59°56' E 030°16'0 0.0
2017-Aug-13 13:25N 59°56' E 030°16'0 0.0
2017-Aug-13 12:55N 59°56' E 030°16'0 0.0
2017-Aug-13 12:28N 59°56' E 030°16'0 0.0
2017-Aug-13 11:58N 59°56' E 030°16'0 0.0
2017-Aug-13 11:28N 59°56' E 030°16'0 0.0
2017-Aug-13 11:00N 59°56' E 030°16'0 0.0
2017-Aug-13 10:27N 59°56' E 030°16'0 0.0
2017-Aug-13 10:00N 59°56' E 030°16'0 0.0
2017-Aug-13 09:30N 59°56' E 030°16'0 0.0
2017-Aug-13 08:56N 59°56' E 030°16'0 0.0
2017-Aug-13 08:29N 59°56' E 030°16'0 0.0
2017-Aug-13 07:56N 59°56' E 030°16'0 0.0
2017-Aug-13 07:29N 59°56' E 030°16'0 0.0
2017-Aug-13 06:59N 59°56' E 030°16'0 0.0
2017-Aug-13 06:25N 59°56' E 030°16'0 0.0
2017-Aug-13 05:58N 59°56' E 030°16'0 0.0
2017-Aug-13 05:28N 59°56' E 030°16'0 0.0
2017-Aug-13 04:58N 59°56' E 030°16'0 0.0
2017-Aug-13 04:28N 59°56' E 030°16'0 0.0
2017-Aug-13 04:00N 59°56' E 030°16'0 0.0
2017-Aug-13 03:30N 59°56' E 030°16'0 0.0
2017-Aug-13 03:00N 59°56' E 030°16'0 0.0
2017-Aug-13 02:30N 59°56' E 030°16'0 0.0
2017-Aug-13 01:59N 59°56' E 030°16'0 0.0
2017-Aug-13 01:29N 59°56' E 030°16'0 0.0
2017-Aug-13 00:56N 59°56' E 030°16'0 0.0
2017-Aug-13 00:29N 59°56' E 030°16'0 0.0
2017-Aug-12 23:59N 59°56' E 030°16'0 0.0
2017-Aug-12 23:28N 59°56' E 030°16'0 0.0
2017-Aug-12 22:58N 59°56' E 030°16'0 0.0
2017-Aug-12 22:28N 59°56' E 030°16'  
Track history (hours):
 
Tides and Currents Weather Stations Pressure Air Temp Water Temp Dewpoint Dewpoint Depression Visibility Wind Speed Wind Dir Waves Ship Positions

Saga Pearl II

Last reported at 2017-Aug-22 22:26 UTC. Time now 2017-Aug-22 22:28 UTC.
Position N 40°04' W 010°09'.

Length 164 m; draft 6.5 m.

Type: Ship. MMSI: 256878000.

Date/timePositionNaut miles runAvg speedWind from/ knotsBaromVisibWave heightAir tempDewpointWater temp
2017-Aug-22 22:26N 40°04' W 010°09'715.6
2017-Aug-22 22:00N 40°11' W 010°09'915.5
2017-Aug-22 21:26N 40°20' W 010°09'613.4
2017-Aug-22 21:00N 40°26' W 010°08'815.7
2017-Aug-22 20:30N 40°33' W 010°08'816.0
2017-Aug-22 20:00N 40°41' W 010°07'816.1
2017-Aug-22 19:30N 40°49' W 010°07'816.0
2017-Aug-22 19:00N 40°57' W 010°08'816.0
2017-Aug-22 18:30N 41°05' W 010°08'816.0
2017-Aug-22 18:00N 41°13' W 010°08'816.0
2017-Aug-22 17:30N 41°21' W 010°08'915.9
2017-Aug-22 16:58N 41°30' W 010°08'715.8
2017-Aug-22 16:30N 41°37' W 010°08'815.6
2017-Aug-22 15:59N 41°45' W 010°07'815.8
2017-Aug-22 15:30N 41°53' W 010°07'1016.0
2017-Aug-22 14:51N 42°03' W 010°07'615.7
2017-Aug-22 14:28N 42°10' W 010°07'1115.4
2017-Aug-22 13:45N 42°21' W 010°07'815.4
2017-Aug-22 13:15N 42°28' W 010°07'415.4
2017-Aug-22 13:00N 42°32' W 010°07'815.6
2017-Aug-22 12:30N 42°40' W 010°07'916.0
2017-Aug-22 11:58N 42°49' W 010°08'1615.5
2017-Aug-22 10:55N 43°05' W 010°07'815.3
2017-Aug-22 10:23N 43°13' W 010°07'1015.3
2017-Aug-22 09:44N 43°22' W 010°03'315.3
2017-Aug-22 09:30N 43°25' W 010°01'815.2
2017-Aug-22 09:00N 43°32' W 009°56'815.6
2017-Aug-22 08:30N 43°39' W 009°51'1015.8
2017-Aug-22 07:52N 43°48' W 009°45'615.6
2017-Aug-22 07:30N 43°53' W 009°41'815.3
2017-Aug-22 07:00N 43°60' W 009°36'7915.1
2017-Aug-22 01:45N 45°10' W 008°44'3914.3
2017-Aug-21 23:00N 45°42' W 008°12'5413.5 110 / 211013.410.8 19.518.221.2
2017-Aug-21 19:00N 46°30' W 007°36'8621.6 090 / 211015.810.8 20.017.1
2017-Aug-21 15:00N 47°48' W 006°42'3911.6 1009.6 0.3
2017-Aug-21 11:38N 48°24' W 006°20'317.6
2017-Aug-21 11:28N 48°27' W 006°18'917.8
2017-Aug-21 10:59N 48°35' W 006°12'918.5
2017-Aug-21 10:30N 48°42' W 006°06'918.8
2017-Aug-21 10:01N 48°50' W 005°59'8491.8
2017-Aug-21 10:00N 48°42' W 006°00'1734.9 190 / 61022.710.8 17.616.6
2017-Aug-21 09:30N 48°58' W 005°50'1019.0
2017-Aug-21 09:00N 49°02' W 005°37'918.9
2017-Aug-21 08:30N 49°07' W 005°25'2017.9
2017-Aug-21 07:24N 49°16' W 004°58'717.1
2017-Aug-21 07:01N 49°19' W 004°49'916.5
2017-Aug-21 06:29N 49°23' W 004°37'816.0
2017-Aug-21 06:00N 49°27' W 004°27'815.6
2017-Aug-21 05:31N 49°30' W 004°16'815.4
2017-Aug-21 05:01N 49°34' W 004°05'815.4
2017-Aug-21 04:30N 49°38' W 003°55'815.7
2017-Aug-21 04:01N 49°42' W 003°45'816.1
2017-Aug-21 03:31N 49°46' W 003°34'816.7
2017-Aug-21 03:01N 49°50' W 003°23'917.2
2017-Aug-21 02:31N 49°55' W 003°12'918.2
2017-Aug-21 01:59N 49°59' W 002°59'3219.7
2017-Aug-21 00:21N 50°07' W 002°10'719.9
2017-Aug-21 00:00N 50°09' W 001°60'1019.6
2017-Aug-20 23:30N 50°12' W 001°45'918.7
2017-Aug-20 23:00N 50°15' W 001°31'918.1
2017-Aug-20 22:30N 50°18' W 001°18'3415.7
2017-Aug-20 20:22N 50°26' W 000°27'515.2
2017-Aug-20 20:01N 50°28' W 000°19'815.2
2017-Aug-20 19:31N 50°30' W 000°07'1015.2
2017-Aug-20 18:52N 50°33' E 000°08'615.4
2017-Aug-20 18:28N 50°34' E 000°17'1016.2
2017-Aug-20 17:50N 50°38' E 000°32'617.0
2017-Aug-20 17:29N 50°40' E 000°40'917.8
2017-Aug-20 16:59N 50°46' E 000°52'2218.0
2017-Aug-20 15:46N 51°01' E 001°17'8 0.8
2017-Aug-20 04:58N 51°07' E 001°25'511.6
2017-Aug-20 04:30N 51°08' E 001°33'612.8
2017-Aug-20 04:00N 51°12' E 001°41'713.3
2017-Aug-20 03:31N 51°17' E 001°47'612.8
2017-Aug-20 03:01N 51°23' E 001°51'612.4
2017-Aug-20 02:30N 51°28' E 001°56'612.6
2017-Aug-20 02:00N 51°32' E 002°04'612.8
2017-Aug-20 01:30N 51°36' E 002°12'712.8
2017-Aug-20 00:59N 51°41' E 002°20'6413.3
2017-Aug-19 20:12N 52°26' E 003°32'314.8
2017-Aug-19 20:00N 52°27' E 003°37'814.7
2017-Aug-19 19:27N 52°30' E 003°49'614.4
2017-Aug-19 19:00N 52°31' E 003°60'714.4
2017-Aug-19 18:30N 52°31' E 004°12'713.5
2017-Aug-19 18:00N 52°30' E 004°22'4 8.1
2017-Aug-19 17:31N 52°28' E 004°29'4 7.9
2017-Aug-19 17:00N 52°28' E 004°35'0 0.0
2017-Aug-19 16:30N 52°28' E 004°35'0 0.0
2017-Aug-19 16:00N 52°28' E 004°35'0 0.0
2017-Aug-19 15:30N 52°28' E 004°35'0 0.0
2017-Aug-19 15:00N 52°28' E 004°35'0 0.0
2017-Aug-19 14:00N 52°28' E 004°35'0 0.0
2017-Aug-19 13:30N 52°28' E 004°35'0 0.0
2017-Aug-19 13:00N 52°28' E 004°35'0 0.0
2017-Aug-19 12:30N 52°28' E 004°35'0 0.0
2017-Aug-19 12:00N 52°28' E 004°35'0 0.0
2017-Aug-19 11:30N 52°28' E 004°35'0 0.0
2017-Aug-19 11:00N 52°28' E 004°35'0 0.0
2017-Aug-19 10:28N 52°28' E 004°35'0 0.0
2017-Aug-19 10:00N 52°28' E 004°35'0 0.0
2017-Aug-19 09:30N 52°28' E 004°35'0 0.0
2017-Aug-19 09:00N 52°28' E 004°35'0 0.0
2017-Aug-19 08:30N 52°28' E 004°35'0 0.0
2017-Aug-19 08:00N 52°28' E 004°35'0 0.5
2017-Aug-19 07:30N 52°28' E 004°35'510.3
2017-Aug-19 07:00N 52°28' E 004°27'510.1
2017-Aug-19 06:30N 52°28' E 004°18'612.2
2017-Aug-19 06:00N 52°30' E 004°08'713.1
2017-Aug-19 05:30N 52°36' E 004°04'713.5
2017-Aug-19 05:00N 52°42' E 004°01'713.9
2017-Aug-19 04:30N 52°49' E 003°58'714.2
2017-Aug-19 04:00N 52°56' E 004°00'510.0
2017-Aug-19 03:30N 52°60' E 004°06'1310.8
2017-Aug-19 02:20N 53°08' E 004°21'1912.5
2017-Aug-19 00:48N 53°26' E 004°35'612.1
2017-Aug-19 00:16N 53°30' E 004°43'312.7
2017-Aug-19 00:00N 53°31' E 004°48'612.4
2017-Aug-18 23:30N 53°33' E 004°58'5014.1
2017-Aug-18 20:00N 53°48' E 006°18'5014.4 260 / 141008.510.8 17.112.0
2017-Aug-18 16:32N 54°01' E 007°39'013.8
2017-Aug-18 16:30N 54°01' E 007°40'713.9
2017-Aug-18 16:00N 54°01' E 007°52'714.1
2017-Aug-18 15:30N 54°01' E 008°04'613.0
2017-Aug-18 15:00N 54°00' E 008°15'917.3
2017-Aug-18 14:30N 53°59' E 008°29'1717.2
2017-Aug-18 13:30N 53°51' E 008°55'816.4
2017-Aug-18 13:00N 53°54' E 009°08'0 0.3
2017-Aug-18 12:30N 53°54' E 009°09'1 2.4
2017-Aug-18 12:01N 53°54' E 009°10'4 8.0
2017-Aug-18 11:30N 53°57' E 009°15'4 8.1
2017-Aug-18 11:00N 54°01' E 009°18'5 8.3
2017-Aug-18 10:26N 54°06' E 009°20'3 7.5
2017-Aug-18 09:59N 54°09' E 009°21'2 3.3
2017-Aug-18 09:29N 54°10' E 009°24'44 6.2
2017-Aug-18 02:26N 54°33' E 010°27'4 9.7
2017-Aug-18 02:00N 54°34' E 010°34'5 9.4
2017-Aug-18 01:30N 54°35' E 010°42'5 9.3
2017-Aug-18 01:00N 54°35' E 010°50'510.1
2017-Aug-18 00:30N 54°36' E 010°59'510.4
2017-Aug-18 00:00N 54°36' E 011°08'510.4
2017-Aug-17 23:30N 54°35' E 011°16'510.4
2017-Aug-17 23:00N 54°32' E 011°24'5 9.0
2017-Aug-17 22:30N 54°28' E 011°27'510.1
2017-Aug-17 22:00N 54°23' E 011°27'610.1
2017-Aug-17 21:27N 54°18' E 011°26'8 8.7
2017-Aug-17 20:34N 54°10' E 011°26'1 9.7
2017-Aug-17 20:30N 54°09' E 011°26'5 9.2
2017-Aug-17 20:00N 54°05' E 011°27'611.0
2017-Aug-17 19:30N 54°01' E 011°20'611.6
2017-Aug-17 19:00N 53°56' E 011°25'2 4.5
2017-Aug-17 18:29N 53°54' E 011°28'0 0.0
2017-Aug-17 17:59N 53°54' E 011°28'0 0.0
2017-Aug-17 17:29N 53°54' E 011°28'0 0.0
2017-Aug-17 16:58N 53°54' E 011°28'0 0.0
2017-Aug-17 16:28N 53°54' E 011°28'0 0.0
2017-Aug-17 16:00N 53°54' E 011°28'0 0.0
2017-Aug-17 15:28N 53°54' E 011°28'0 0.0
2017-Aug-17 15:00N 53°54' E 011°28'0 0.0
2017-Aug-17 14:30N 53°54' E 011°28'0 0.0
2017-Aug-17 14:00N 53°54' E 011°28'0 0.0
2017-Aug-17 13:30N 53°54' E 011°28'0 0.0
2017-Aug-17 13:00N 53°54' E 011°28'0 0.0
2017-Aug-17 12:29N 53°54' E 011°28'0 0.0
2017-Aug-17 11:59N 53°54' E 011°28'0 0.0
2017-Aug-17 11:29N 53°54' E 011°28'0 0.0
2017-Aug-17 10:59N 53°54' E 011°28'0 0.0
2017-Aug-17 10:29N 53°54' E 011°28'0 0.0
2017-Aug-17 09:58N 53°54' E 011°28'0 0.0
2017-Aug-17 09:28N 53°54' E 011°28'0 0.0
2017-Aug-17 08:58N 53°54' E 011°28'0 0.0
2017-Aug-17 08:28N 53°54' E 011°28'0 0.0
2017-Aug-17 08:00N 53°54' E 011°28'0 0.0
2017-Aug-17 07:30N 53°54' E 011°28'0 0.0
2017-Aug-17 07:00N 53°54' E 011°28'0 0.0
2017-Aug-17 06:30N 53°54' E 011°28'0 0.0
2017-Aug-17 06:00N 53°54' E 011°28'1 1.9
2017-Aug-17 05:31N 53°55' E 011°26'4 7.3
2017-Aug-17 05:01N 53°58' E 011°23'4 7.3
2017-Aug-17 04:30N 54°01' E 011°21'5 9.9
2017-Aug-17 04:01N 54°05' E 011°27'612.4
2017-Aug-17 03:31N 54°11' E 011°28'815.6
2017-Aug-17 03:00N 54°18' E 011°35'816.6
2017-Aug-17 02:30N 54°24' E 011°46'815.8
2017-Aug-17 02:00N 54°26' E 011°59'714.1
2017-Aug-17 01:31N 54°28' E 012°10'713.8
2017-Aug-17 01:00N 54°34' E 012°13'510.2
2017-Aug-17 00:30N 54°38' E 012°19'510.1
2017-Aug-17 00:00N 54°41' E 012°26'610.2
2017-Aug-16 23:24N 54°45' E 012°35'4 9.9
2017-Aug-16 22:58N 54°47' E 012°41'19 9.9
2017-Aug-16 21:02N 54°53' E 013°13'0 9.9
2017-Aug-16 20:59N 54°53' E 013°14'510.0
2017-Aug-16 20:30N 54°54' E 013°22'610.1
2017-Aug-16 19:57N 54°55' E 013°32'4 9.9
2017-Aug-16 19:30N 54°55' E 013°39'5 9.9
2017-Aug-16 19:00N 54°55' E 013°48'5 9.7
2017-Aug-16 18:30N 54°57' E 013°56'5 9.6
2017-Aug-16 18:00N 54°57' E 014°04'5 9.6
2017-Aug-16 17:30N 54°59' E 014°12'5 9.7
2017-Aug-16 17:00N 55°00' E 014°20'4 8.4
2017-Aug-16 16:30N 55°02' E 014°27'5 9.3
2017-Aug-16 16:00N 55°04' E 014°34'4 8.2
2017-Aug-16 15:30N 55°06' E 014°41'0 0.8
2017-Aug-16 14:58N 55°06' E 014°41'0 0.0
2017-Aug-16 14:28N 55°06' E 014°41'0 0.0
2017-Aug-16 14:00N 55°06' E 014°41'0 0.0
2017-Aug-16 13:30N 55°06' E 014°41'0 0.0
2017-Aug-16 13:00N 55°06' E 014°41'0 0.0
2017-Aug-16 12:30N 55°06' E 014°41'0 0.0
2017-Aug-16 11:59N 55°06' E 014°41'0 0.0
2017-Aug-16 11:29N 55°06' E 014°41'0 0.0
2017-Aug-16 10:59N 55°06' E 014°41'0 0.0
2017-Aug-16 10:29N 55°06' E 014°41'0 0.0
2017-Aug-16 09:59N 55°06' E 014°41'0 0.0
2017-Aug-16 09:28N 55°06' E 014°41'0 0.0
2017-Aug-16 08:58N 55°06' E 014°41'0 0.0
2017-Aug-16 08:28N 55°06' E 014°41'0 0.0
2017-Aug-16 07:58N 55°06' E 014°41'0 0.0
2017-Aug-16 07:28N 55°06' E 014°41'0 0.0
2017-Aug-16 06:57N 55°06' E 014°41'0 0.0
2017-Aug-16 06:27N 55°06' E 014°41'0 0.0
2017-Aug-16 05:57N 55°06' E 014°41'0 0.0
2017-Aug-16 05:31N 55°06' E 014°41'2 4.3
2017-Aug-16 05:01N 55°05' E 014°38'612.2
2017-Aug-16 04:30N 55°12' E 014°38'815.8
2017-Aug-16 04:00N 55°19' E 014°43'816.1
2017-Aug-16 03:30N 55°24' E 014°54'816.7
2017-Aug-16 03:00N 55°29' E 015°06'816.1
2017-Aug-16 02:30N 55°34' E 015°17'815.5
2017-Aug-16 02:00N 55°39' E 015°27'816.0
2017-Aug-16 01:30N 55°43' E 015°40'816.0
2017-Aug-16 01:00N 55°47' E 015°51'816.4
2017-Aug-16 00:31N 55°52' E 016°03'816.5
2017-Aug-16 00:00N 55°57' E 016°15'12749.4
2017-Aug-16 00:00N 55°48' E 016°00'2042.1 200 / 261015.9 5.4 18.615.919.3
2017-Aug-15 23:30N 56°02' E 016°27'816.5
2017-Aug-15 23:00N 56°07' E 016°39'1614.9
2017-Aug-15 21:57N 56°16' E 017°01'916.4
2017-Aug-15 21:26N 56°21' E 017°14'1416.4
2017-Aug-15 20:33N 56°30' E 017°35'116.5
2017-Aug-15 20:30N 56°30' E 017°36'816.5
2017-Aug-15 20:01N 56°35' E 017°48'816.4
2017-Aug-15 19:30N 56°41' E 017°59'816.3
2017-Aug-15 19:00N 56°46' E 018°11'4293.4
2017-Aug-15 19:00N 56°42' E 018°06'1722.2 160 / 211021.410.8 17.514.0
2017-Aug-15 18:14N 56°54' E 018°28'416.5
2017-Aug-15 18:01N 56°57' E 018°33'12510.4
2017-Aug-15 06:00N 58°36' E 020°54'419.6 180 / 191025.910.8 17.512.119.7
2017-Aug-15 05:47N 58°40' E 020°56'3 9.4
2017-Aug-15 05:30N 58°42' E 020°59'5 9.4
2017-Aug-15 05:00N 58°46' E 021°04'5 9.4
2017-Aug-15 04:31N 58°50' E 021°09'5 9.4
2017-Aug-15 04:00N 58°53' E 021°15'5 9.5
2017-Aug-15 03:30N 58°57' E 021°20'5 9.5
2017-Aug-15 03:00N 59°01' E 021°25'5 9.5
2017-Aug-15 02:30N 59°05' E 021°31'5 9.6
2017-Aug-15 02:00N 59°09' E 021°37'510.3
2017-Aug-15 01:30N 59°12' E 021°44'5 9.1
2017-Aug-15 01:00N 59°15' E 021°51'510.3
2017-Aug-15 00:30N 59°18' E 021°59'4 8.8
2017-Aug-15 00:00N 59°21' E 022°06'5 9.6
2017-Aug-14 23:31N 59°24' E 022°14'5 9.8
2017-Aug-14 23:00N 59°26' E 022°21'5 9.7
2017-Aug-14 22:30N 59°29' E 022°29'5 9.5
2017-Aug-14 22:01N 59°32' E 022°37'510.1
2017-Aug-14 21:30N 59°33' E 022°47'5 9.2
2017-Aug-14 21:00N 59°32' E 022°56'4 8.9
2017-Aug-14 20:31N 59°32' E 023°05'510.7
2017-Aug-14 20:00N 59°32' E 023°15'4 8.2
2017-Aug-14 19:30N 59°32' E 023°23'5 9.6
2017-Aug-14 19:00N 59°31' E 023°33'5 9.4
2017-Aug-14 18:31N 59°31' E 023°42'5 9.3
2017-Aug-14 18:01N 59°31' E 023°51'2101.0
2017-Aug-14 18:00N 59°30' E 023°54'3 6.9 270 / 161023.510.8 17.5 9.3
2017-Aug-14 17:30N 59°31' E 024°00'5 9.1
2017-Aug-14 17:01N 59°30' E 024°09'5 9.0
2017-Aug-14 16:31N 59°30' E 024°18'5 9.1
2017-Aug-14 16:00N 59°30' E 024°27'5 9.1
2017-Aug-14 15:31N 59°31' E 024°36'510.1
2017-Aug-14 15:01N 59°30' E 024°46'3 4.9
2017-Aug-14 14:30N 59°27' E 024°46'0 0.0
2017-Aug-14 13:59N 59°27' E 024°46'0 0.0
2017-Aug-14 13:29N 59°27' E 024°46'0 0.0
2017-Aug-14 12:59N 59°27' E 024°46'0 0.0
2017-Aug-14 12:29N 59°27' E 024°46'0 0.0
2017-Aug-14 11:58N 59°27' E 024°46'0 0.0
2017-Aug-14 11:28N 59°27' E 024°46'0 0.0
2017-Aug-14 10:58N 59°27' E 024°46'0 0.0
2017-Aug-14 10:28N 59°27' E 024°46'0 0.0
2017-Aug-14 09:58N 59°27' E 024°46'0 0.0
2017-Aug-14 09:30N 59°27' E 024°46'0 0.0
2017-Aug-14 09:00N 59°27' E 024°46'0 0.0
2017-Aug-14 08:30N 59°27' E 024°46'0 0.0
2017-Aug-14 08:00N 59°27' E 024°46'0 0.0
2017-Aug-14 07:29N 59°27' E 024°46'0 0.0
2017-Aug-14 06:59N 59°27' E 024°46'0 0.0
2017-Aug-14 06:29N 59°27' E 024°46'0 0.0
2017-Aug-14 05:59N 59°27' E 024°46'0 0.0
2017-Aug-14 05:31N 59°27' E 024°46'3 5.2
2017-Aug-14 05:00N 59°30' E 024°45'713.8
2017-Aug-14 04:31N 59°36' E 024°40'713.5
2017-Aug-14 04:00N 59°42' E 024°47'714.3
2017-Aug-14 03:31N 59°47' E 024°57'714.7
2017-Aug-14 03:00N 59°51' E 025°09'713.0
2017-Aug-14 02:31N 59°52' E 025°22'815.4
2017-Aug-14 02:00N 59°53' E 025°37'815.0
2017-Aug-14 01:30N 59°55' E 025°51'715.0
2017-Aug-14 01:00N 59°57' E 026°06'816.2
2017-Aug-14 00:30N 59°60' E 026°21'816.8
2017-Aug-14 00:00N 60°01' E 026°37'816.8
2017-Aug-13 23:30N 60°00' E 026°54'815.8
2017-Aug-13 23:00N 60°01' E 027°10'816.5
2017-Aug-13 22:30N 60°05' E 027°24'816.8
2017-Aug-13 22:00N 60°10' E 027°38'815.3
2017-Aug-13 21:30N 60°11' E 027°53'816.8
2017-Aug-13 21:00N 60°09' E 028°09'816.3
2017-Aug-13 20:30N 60°05' E 028°24'816.2
2017-Aug-13 20:00N 60°03' E 028°39'916.7
2017-Aug-13 19:28N 60°03' E 028°58'1016.6
2017-Aug-13 18:53N 60°02' E 029°17'1212.9
2017-Aug-13 17:59N 59°60' E 029°40'510.3
2017-Aug-13 17:30N 59°58' E 029°48'611.8
2017-Aug-13 17:00N 59°55' E 029°59'510.2
2017-Aug-13 16:30N 59°54' E 030°09'3 5.4
2017-Aug-13 16:00N 59°54' E 030°14'2 4.6
2017-Aug-13 15:30N 59°56' E 030°17'0 0.8
2017-Aug-13 14:59N 59°56' E 030°16'0 0.0
2017-Aug-13 14:29N 59°56' E 030°16'0 0.0
2017-Aug-13 13:59N 59°56' E 030°16'0 0.0
2017-Aug-13 13:25N 59°56' E 030°16'0 0.0
2017-Aug-13 12:55N 59°56' E 030°16'0 0.0
2017-Aug-13 12:28N 59°56' E 030°16'0 0.0
2017-Aug-13 11:58N 59°56' E 030°16'0 0.0
2017-Aug-13 11:28N 59°56' E 030°16'0 0.0
2017-Aug-13 11:00N 59°56' E 030°16'0 0.0
2017-Aug-13 10:27N 59°56' E 030°16'0 0.0
2017-Aug-13 10:00N 59°56' E 030°16'0 0.0
2017-Aug-13 09:30N 59°56' E 030°16'0 0.0
2017-Aug-13 08:56N 59°56' E 030°16'0 0.0
2017-Aug-13 08:29N 59°56' E 030°16'0 0.0
2017-Aug-13 07:56N 59°56' E 030°16'0 0.0
2017-Aug-13 07:29N 59°56' E 030°16'0 0.0
2017-Aug-13 06:59N 59°56' E 030°16'0 0.0
2017-Aug-13 06:25N 59°56' E 030°16'0 0.0
2017-Aug-13 05:58N 59°56' E 030°16'0 0.0
2017-Aug-13 05:28N 59°56' E 030°16'0 0.0
2017-Aug-13 04:58N 59°56' E 030°16'0 0.0
2017-Aug-13 04:28N 59°56' E 030°16'0 0.0
2017-Aug-13 04:00N 59°56' E 030°16'0 0.0
2017-Aug-13 03:30N 59°56' E 030°16'0 0.0
2017-Aug-13 03:00N 59°56' E 030°16'0 0.0
2017-Aug-13 02:30N 59°56' E 030°16'0 0.0
2017-Aug-13 01:59N 59°56' E 030°16'0 0.0
2017-Aug-13 01:29N 59°56' E 030°16'0 0.0
2017-Aug-13 00:56N 59°56' E 030°16'0 0.0
2017-Aug-13 00:29N 59°56' E 030°16'0 0.0
2017-Aug-12 23:59N 59°56' E 030°16'0 0.0
2017-Aug-12 23:28N 59°56' E 030°16'0 0.0
2017-Aug-12 22:58N 59°56' E 030°16'0 0.0
2017-Aug-12 22:28N 59°56' E 030°16'  

Dump ship's entire track history